createdAt,value
2022-08-26T00:02:03.167Z,49.96
2022-08-26T00:04:32.189Z,50.18
2022-08-26T00:07:00.634Z,50.17
2022-08-26T00:09:28.752Z,50.22
2022-08-26T00:11:56.716Z,50.32
2022-08-26T00:14:31.053Z,50.41
2022-08-26T00:17:02.731Z,50.64
2022-08-26T00:19:30.689Z,50.50
2022-08-26T00:21:58.526Z,50.74
2022-08-26T00:24:30.691Z,50.83
2022-08-26T00:26:59.028Z,50.83
2022-08-26T00:29:30.721Z,51.02
2022-08-26T00:32:06.775Z,51.22
2022-08-26T00:34:36.827Z,51.33
2022-08-26T00:37:09.069Z,51.38
2022-08-26T00:39:41.363Z,51.49
2022-08-26T00:42:11.146Z,51.50
2022-08-26T00:44:40.846Z,51.63
2022-08-26T00:47:31.090Z,51.67
2022-08-26T00:50:06.757Z,51.67
2022-08-26T00:52:37.218Z,51.88
2022-08-26T00:55:22.292Z,51.84
2022-08-26T00:57:52.705Z,52.04
2022-08-26T01:00:28.467Z,52.09
2022-08-26T01:03:02.582Z,52.07
2022-08-26T01:05:34.923Z,52.02
2022-08-26T01:08:04.663Z,52.15
2022-08-26T01:10:32.598Z,52.23
2022-08-26T01:13:10.285Z,52.39
2022-08-26T01:15:55.041Z,52.45
2022-08-26T01:18:26.847Z,52.36
2022-08-26T01:21:20.417Z,52.45
2022-08-26T01:23:57.623Z,52.58
2022-08-26T01:26:41.383Z,52.71
2022-08-26T01:29:14.987Z,52.69
2022-08-26T01:31:47.556Z,52.84
2022-08-26T01:34:37.542Z,52.80
2022-08-26T01:37:15.596Z,53.08
2022-08-26T01:39:51.201Z,52.86
2022-08-26T01:42:24.037Z,53.21
2022-08-26T01:45:02.955Z,53.32
2022-08-26T01:47:37.177Z,53.09
2022-08-26T01:50:15.653Z,53.33
2022-08-26T01:52:54.331Z,53.51
2022-08-26T01:55:27.704Z,53.42
2022-08-26T01:58:13.873Z,53.35
2022-08-26T02:00:41.888Z,53.75
2022-08-26T02:03:17.384Z,53.75
2022-08-26T02:06:09.272Z,53.72
2022-08-26T02:08:48.182Z,54.00
2022-08-26T02:11:21.621Z,53.84
2022-08-26T02:14:04.179Z,53.96
2022-08-26T02:16:39.900Z,54.02
2022-08-26T02:19:20.701Z,54.12
2022-08-26T02:21:53.084Z,54.18
2022-08-26T02:24:27.241Z,54.31
2022-08-26T02:26:58.175Z,54.43
2022-08-26T02:29:41.424Z,54.58
2022-08-26T02:32:11.497Z,54.63
2022-08-26T02:34:40.079Z,54.58
2022-08-26T02:37:11.758Z,54.60
2022-08-26T02:39:42.919Z,54.71
2022-08-26T02:42:12.435Z,54.89
2022-08-26T02:44:41.903Z,54.81
2022-08-26T02:47:17.036Z,54.98
2022-08-26T02:49:47.490Z,54.97
2022-08-26T02:52:16.228Z,55.11
2022-08-26T02:54:45.874Z,55.09
2022-08-26T02:57:20.689Z,55.17
2022-08-26T02:59:51.526Z,55.23
2022-08-26T03:02:21.916Z,55.47
2022-08-26T03:04:57.835Z,55.40
2022-08-26T03:07:31.518Z,55.59
2022-08-26T03:10:08.112Z,55.65
2022-08-26T03:12:41.061Z,55.52
2022-08-26T03:15:17.518Z,55.63
2022-08-26T03:17:50.272Z,55.85
2022-08-26T03:20:20.722Z,55.63
2022-08-26T03:22:53.062Z,55.77
2022-08-26T03:25:28.349Z,55.94
2022-08-26T03:27:57.504Z,55.96
2022-08-26T03:30:39.722Z,56.05
2022-08-26T03:33:16.555Z,56.05
2022-08-26T03:35:50.479Z,56.18
2022-08-26T03:38:25.152Z,56.17
2022-08-26T03:40:54.546Z,56.33
2022-08-26T03:43:26.263Z,56.21
2022-08-26T03:45:55.604Z,56.33
2022-08-26T03:48:25.558Z,56.39
2022-08-26T03:50:54.943Z,56.47
2022-08-26T03:53:25.167Z,56.53
2022-08-26T03:55:55.134Z,56.62
2022-08-26T03:58:26.057Z,56.63
2022-08-26T04:00:55.527Z,56.64
2022-08-26T04:03:46.041Z,56.79
2022-08-26T04:06:15.162Z,56.79
2022-08-26T04:08:45.824Z,56.72
2022-08-26T04:11:23.695Z,56.95
2022-08-26T04:13:51.585Z,57.00
2022-08-26T04:16:21.248Z,57.05
2022-08-26T04:18:52.240Z,57.05
2022-08-26T04:21:21.514Z,57.08
2022-08-26T04:23:51.915Z,57.16
2022-08-26T04:26:22.904Z,57.31
2022-08-26T04:28:54.349Z,57.33
2022-08-26T04:31:26.407Z,57.39
2022-08-26T04:34:00.528Z,57.51
2022-08-26T04:36:30.160Z,57.59
2022-08-26T04:39:02.256Z,57.60
2022-08-26T04:41:31.981Z,57.84
2022-08-26T04:44:06.450Z,57.66
2022-08-26T04:46:34.296Z,57.83
2022-08-26T04:49:09.917Z,57.99
2022-08-26T04:51:39.422Z,58.04
2022-08-26T04:54:09.796Z,57.95
2022-08-26T04:56:43.867Z,58.10
2022-08-26T04:59:17.024Z,57.98
2022-08-26T05:01:50.435Z,58.18
2022-08-26T05:04:21.035Z,58.24
2022-08-26T05:06:50.652Z,58.11
2022-08-26T05:09:21.604Z,58.29
2022-08-26T05:11:51.830Z,58.37
2022-08-26T05:14:23.732Z,58.35
2022-08-26T05:16:54.042Z,58.47
2022-08-26T05:19:22.083Z,58.43
2022-08-26T05:21:51.225Z,58.58
2022-08-26T05:24:20.887Z,58.62
2022-08-26T05:26:51.055Z,58.73
2022-08-26T05:29:19.113Z,58.79
2022-08-26T05:31:52.079Z,58.98
2022-08-26T05:34:22.446Z,58.92
2022-08-26T05:36:55.155Z,58.87
2022-08-26T05:39:26.265Z,58.81
2022-08-26T05:41:54.060Z,58.96
2022-08-26T05:44:26.114Z,58.85
2022-08-26T05:46:55.660Z,59.10
2022-08-26T05:49:26.222Z,59.22
2022-08-26T05:51:57.636Z,59.06
2022-08-26T05:54:27.551Z,58.99
2022-08-26T05:56:55.290Z,59.09
2022-08-26T05:59:24.446Z,59.19
2022-08-26T06:01:56.622Z,59.24
2022-08-26T06:04:29.150Z,59.46
2022-08-26T06:07:01.382Z,59.33
2022-08-26T06:09:29.275Z,59.44
2022-08-26T06:12:03.491Z,59.39
2022-08-26T06:14:31.669Z,59.66
2022-08-26T06:17:02.530Z,59.68
2022-08-26T06:19:34.617Z,59.82
2022-08-26T06:22:24.096Z,59.87
2022-08-26T06:25:14.140Z,60.00
2022-08-26T06:27:42.160Z,59.95
2022-08-26T06:30:12.095Z,59.89
2022-08-26T06:32:42.039Z,59.70
2022-08-26T06:35:11.919Z,59.86
2022-08-26T06:37:42.688Z,59.85
2022-08-26T06:40:12.342Z,59.74
2022-08-26T06:42:41.777Z,59.77
2022-08-26T06:45:11.290Z,59.58
2022-08-26T06:47:39.316Z,59.68
2022-08-26T06:50:08.867Z,59.70
2022-08-26T06:52:43.168Z,59.78
2022-08-26T06:55:11.145Z,59.81
2022-08-26T06:57:41.230Z,59.74
2022-08-26T07:00:11.307Z,59.80
2022-08-26T07:02:46.057Z,59.76
2022-08-26T07:05:15.764Z,59.75
2022-08-26T07:07:45.179Z,59.81
2022-08-26T07:10:14.570Z,59.80
2022-08-26T07:12:47.233Z,59.90
2022-08-26T07:15:17.370Z,59.87
2022-08-26T07:17:47.052Z,59.67
2022-08-26T07:20:17.648Z,59.42
2022-08-26T07:22:48.755Z,58.96
2022-08-26T07:25:17.702Z,58.11
2022-08-26T07:27:54.369Z,57.53
2022-08-26T07:30:25.719Z,57.18
2022-08-26T07:32:57.628Z,56.88
2022-08-26T07:35:28.221Z,56.60
2022-08-26T07:37:57.198Z,56.17
2022-08-26T07:40:26.706Z,55.92
2022-08-26T07:42:54.651Z,55.70
2022-08-26T07:45:24.324Z,55.16
2022-08-26T07:47:52.978Z,54.98
2022-08-26T07:50:23.784Z,54.40
2022-08-26T07:52:52.035Z,53.81
2022-08-26T07:55:23.541Z,53.32
2022-08-26T07:57:51.662Z,52.81
2022-08-26T08:00:20.864Z,52.07
2022-08-26T08:02:50.274Z,51.44
2022-08-26T08:05:23.505Z,50.64
2022-08-26T08:08:27.326Z,49.97
2022-08-26T08:10:57.561Z,49.25
2022-08-26T08:13:30.433Z,48.25
2022-08-26T08:16:00.771Z,47.34
2022-08-26T08:18:30.553Z,46.99
2022-08-26T08:21:21.209Z,46.00
2022-08-26T08:23:54.513Z,45.18
2022-08-26T08:26:26.253Z,44.47
2022-08-26T08:28:57.282Z,43.91
2022-08-26T08:31:56.454Z,43.00
2022-08-26T08:34:21.496Z,42.14
2022-08-26T08:36:53.331Z,41.44
2022-08-26T08:39:25.609Z,40.65
2022-08-26T08:42:05.856Z,40.05
2022-08-26T08:44:41.685Z,38.96
2022-08-26T08:47:27.437Z,38.35
2022-08-26T08:50:06.900Z,37.75
2022-08-26T08:52:38.251Z,37.40
2022-08-26T08:55:10.311Z,36.87
2022-08-26T08:58:02.287Z,35.96
2022-08-26T09:00:46.297Z,35.39
2022-08-26T09:03:31.939Z,34.74
2022-08-26T09:06:04.877Z,34.42
2022-08-26T09:08:38.912Z,33.79
2022-08-26T09:11:09.674Z,33.21
2022-08-26T09:13:42.305Z,32.74
2022-08-26T09:16:19.182Z,32.33
2022-08-26T09:19:06.496Z,32.03
2022-08-26T09:21:34.922Z,31.38
2022-08-26T09:24:03.613Z,30.89
2022-08-26T09:26:44.109Z,30.29
2022-08-26T09:29:28.673Z,29.64
2022-08-26T09:32:27.491Z,29.56
2022-08-26T09:35:47.110Z,29.02
2022-08-26T09:38:33.941Z,28.59
2022-08-26T09:41:24.778Z,28.37
2022-08-26T09:44:14.410Z,27.80
2022-08-26T09:46:58.683Z,27.34
2022-08-26T09:49:38.101Z,27.02
2022-08-26T09:52:29.678Z,26.79
2022-08-26T09:55:06.655Z,26.42
2022-08-26T09:57:48.647Z,26.13
2022-08-26T10:00:29.788Z,25.85
2022-08-26T10:03:01.029Z,25.67
2022-08-26T10:05:32.524Z,25.33
2022-08-26T10:08:19.714Z,24.91
2022-08-26T10:10:53.110Z,24.85
2022-08-26T10:13:35.206Z,24.74
2022-08-26T10:16:14.743Z,24.60
2022-08-26T10:19:11.392Z,24.54
2022-08-26T10:21:54.056Z,24.07
2022-08-26T10:24:40.514Z,24.06
2022-08-26T10:27:53.482Z,24.07
2022-08-26T10:30:34.077Z,23.94
2022-08-26T10:33:09.050Z,23.86
2022-08-26T10:35:58.597Z,23.87
2022-08-26T10:38:37.624Z,23.67
2022-08-26T10:41:18.000Z,23.36
2022-08-26T10:44:16.518Z,23.49
2022-08-26T10:47:06.602Z,23.27
2022-08-26T10:49:39.815Z,23.21
2022-08-26T10:52:20.501Z,23.38
2022-08-26T10:55:08.464Z,23.19
2022-08-26T10:58:06.492Z,23.19
2022-08-26T11:01:15.852Z,23.20
2022-08-26T11:04:01.859Z,23.24
2022-08-26T11:06:33.751Z,23.10
2022-08-26T11:09:12.538Z,23.00
2022-08-26T11:11:40.422Z,22.96
2022-08-26T11:14:28.941Z,22.95
2022-08-26T11:17:04.771Z,22.97
2022-08-26T11:19:59.630Z,23.01
2022-08-26T11:22:41.510Z,23.02
2022-08-26T11:25:29.941Z,22.79
2022-08-26T11:28:03.112Z,22.60
2022-08-26T11:30:40.508Z,22.82
2022-08-26T11:33:32.618Z,22.80
2022-08-26T11:36:11.961Z,22.73
2022-08-26T11:38:45.308Z,22.96
2022-08-26T11:41:20.569Z,22.65
2022-08-26T11:43:53.314Z,22.73
2022-08-26T11:46:30.420Z,22.51
2022-08-26T11:49:06.478Z,21.90
2022-08-26T11:51:40.841Z,22.14
2022-08-26T11:54:30.547Z,22.17
2022-08-26T11:57:12.886Z,21.81
2022-08-26T11:59:44.813Z,22.16
2022-08-26T12:02:17.853Z,22.01
2022-08-26T12:04:51.884Z,22.39
2022-08-26T12:07:26.448Z,22.65
2022-08-26T12:10:05.850Z,22.61
2022-08-26T12:12:39.485Z,22.73
2022-08-26T12:15:22.792Z,22.69
2022-08-26T12:17:54.882Z,22.46
2022-08-26T12:20:30.885Z,22.49
2022-08-26T12:23:02.012Z,22.68
2022-08-26T12:25:36.034Z,22.56
2022-08-26T12:28:09.747Z,22.53
2022-08-26T12:30:40.298Z,22.89
2022-08-26T12:33:22.964Z,22.58
2022-08-26T12:35:58.837Z,22.71
2022-08-26T12:38:30.285Z,22.95
2022-08-26T12:41:00.751Z,22.84
2022-08-26T12:43:42.459Z,22.93
2022-08-26T12:46:19.949Z,22.87
2022-08-26T12:48:49.602Z,22.99
2022-08-26T12:51:29.435Z,22.98
2022-08-26T12:53:59.414Z,23.15
2022-08-26T12:56:38.582Z,23.02
2022-08-26T12:59:21.365Z,23.02
2022-08-26T13:01:49.747Z,23.06
2022-08-26T13:04:44.364Z,23.26
2022-08-26T13:07:22.235Z,23.24
2022-08-26T13:09:53.236Z,23.12
2022-08-26T13:12:40.908Z,23.22
2022-08-26T13:15:08.930Z,23.25
2022-08-26T13:17:37.917Z,23.49
2022-08-26T13:20:06.167Z,23.48
2022-08-26T13:22:34.515Z,23.44
2022-08-26T13:25:02.339Z,23.51
2022-08-26T13:27:30.797Z,23.54
2022-08-26T13:29:59.281Z,23.62
2022-08-26T13:32:27.967Z,23.50
2022-08-26T13:34:57.570Z,23.67
2022-08-26T13:37:34.940Z,23.75
2022-08-26T13:40:07.857Z,23.70
2022-08-26T13:42:35.788Z,23.63
2022-08-26T13:45:04.889Z,23.84
2022-08-26T13:47:32.884Z,24.05
2022-08-26T13:50:00.715Z,24.13
2022-08-26T13:52:30.282Z,24.17
2022-08-26T13:55:00.643Z,24.20
2022-08-26T13:57:30.338Z,24.21
2022-08-26T13:59:59.594Z,24.25
2022-08-26T14:02:28.479Z,24.41
2022-08-26T14:04:56.815Z,24.44
2022-08-26T14:07:26.384Z,24.59
2022-08-26T14:09:54.609Z,24.65
2022-08-26T14:12:22.769Z,24.86
2022-08-26T14:14:51.278Z,24.86
2022-08-26T14:17:24.699Z,24.80
2022-08-26T14:19:53.969Z,24.88
2022-08-26T14:22:23.406Z,25.09
2022-08-26T14:24:51.836Z,25.22
2022-08-26T14:27:19.650Z,25.26
2022-08-26T14:29:48.557Z,25.43
2022-08-26T14:32:26.238Z,25.40
2022-08-26T14:34:56.352Z,25.42
2022-08-26T14:37:27.256Z,25.50
2022-08-26T14:39:56.233Z,25.65
2022-08-26T14:42:31.490Z,25.71
2022-08-26T14:45:02.067Z,25.73
2022-08-26T14:47:29.955Z,25.63
2022-08-26T14:50:00.495Z,25.74
2022-08-26T14:52:31.229Z,25.72
2022-08-26T14:55:00.224Z,25.87
2022-08-26T14:57:30.322Z,26.00
2022-08-26T15:00:00.458Z,26.08
2022-08-26T15:02:33.375Z,25.99
2022-08-26T15:05:04.299Z,26.08
2022-08-26T15:07:32.352Z,26.22
2022-08-26T15:10:00.865Z,26.35
2022-08-26T15:12:30.437Z,26.36
2022-08-26T15:14:59.769Z,26.44
2022-08-26T15:17:29.933Z,26.38
2022-08-26T15:20:00.898Z,26.36
2022-08-26T15:22:30.916Z,26.37
2022-08-26T15:25:01.034Z,26.32
2022-08-26T15:27:30.079Z,26.52
2022-08-26T15:30:01.929Z,26.41
2022-08-26T15:32:34.092Z,26.51
2022-08-26T15:35:05.547Z,26.40
2022-08-26T15:37:39.558Z,26.51
2022-08-26T15:40:11.204Z,26.50
2022-08-26T15:42:41.912Z,26.52
2022-08-26T15:45:12.023Z,26.63
2022-08-26T15:48:01.340Z,26.57
2022-08-26T15:50:32.279Z,26.70
2022-08-26T15:53:03.221Z,26.54
2022-08-26T15:55:31.020Z,26.52
2022-08-26T15:58:01.819Z,26.50
2022-08-26T16:00:30.503Z,26.60
2022-08-26T16:02:58.991Z,26.65
2022-08-26T16:05:28.544Z,26.53
2022-08-26T16:08:01.608Z,26.60
2022-08-26T16:10:33.798Z,26.56
2022-08-26T16:13:03.893Z,26.57
2022-08-26T16:15:37.715Z,26.66
2022-08-26T16:18:10.627Z,26.58
2022-08-26T16:21:12.532Z,26.53
2022-08-26T16:23:46.987Z,26.67
2022-08-26T16:26:22.558Z,26.74
2022-08-26T16:28:53.058Z,26.68
2022-08-26T16:31:25.179Z,26.67
2022-08-26T16:33:56.822Z,26.73
2022-08-26T16:36:26.037Z,26.74
2022-08-26T16:39:00.672Z,26.80
2022-08-26T16:41:33.384Z,26.93
2022-08-26T16:44:04.220Z,27.03
2022-08-26T16:46:34.438Z,27.16
2022-08-26T16:49:07.121Z,27.20
2022-08-26T16:51:37.996Z,27.16
2022-08-26T16:54:09.965Z,27.12
2022-08-26T16:56:41.470Z,27.35
2022-08-26T16:59:13.623Z,27.49
2022-08-26T17:01:44.041Z,27.37
2022-08-26T17:04:16.435Z,27.66
2022-08-26T17:06:46.488Z,27.62
2022-08-26T17:09:16.948Z,27.72
2022-08-26T17:11:47.179Z,27.88
2022-08-26T17:14:18.970Z,27.86
2022-08-26T17:16:51.555Z,27.90
2022-08-26T17:19:23.804Z,28.33
2022-08-26T17:21:54.180Z,28.35
2022-08-26T17:24:24.472Z,28.46
2022-08-26T17:26:53.902Z,28.59
2022-08-26T17:29:28.214Z,28.78
2022-08-26T17:31:59.675Z,28.76
2022-08-26T17:34:27.520Z,28.88
2022-08-26T17:36:55.431Z,29.06
2022-08-26T17:39:23.218Z,29.30
2022-08-26T17:41:55.176Z,29.23
2022-08-26T17:44:25.741Z,29.67
2022-08-26T17:46:53.569Z,29.65
2022-08-26T17:49:21.437Z,29.85
2022-08-26T17:51:49.168Z,29.93
2022-08-26T17:54:16.970Z,29.87
2022-08-26T17:56:46.708Z,30.17
2022-08-26T17:59:16.673Z,30.37
2022-08-26T18:01:48.187Z,30.39
2022-08-26T18:04:20.594Z,30.57
2022-08-26T18:06:50.630Z,30.95
2022-08-26T18:09:20.774Z,30.83
2022-08-26T18:11:48.633Z,31.03
2022-08-26T18:14:16.465Z,31.14
2022-08-26T18:16:44.214Z,31.25
2022-08-26T18:19:16.652Z,31.44
2022-08-26T18:21:44.695Z,31.50
2022-08-26T18:24:14.353Z,31.71
2022-08-26T18:26:50.973Z,31.77
2022-08-26T18:29:25.398Z,31.91
2022-08-26T18:31:53.120Z,32.12
2022-08-26T18:34:21.172Z,32.25
2022-08-26T18:36:52.804Z,32.42
2022-08-26T18:39:24.594Z,32.59
2022-08-26T18:41:56.131Z,32.84
2022-08-26T18:44:26.794Z,32.99
2022-08-26T18:46:54.628Z,33.16
2022-08-26T18:49:22.750Z,33.58
2022-08-26T18:51:55.955Z,34.11
2022-08-26T18:54:26.234Z,34.14
2022-08-26T18:56:54.015Z,34.26
2022-08-26T18:59:29.626Z,34.50
2022-08-26T19:02:02.055Z,34.57
2022-08-26T19:04:37.827Z,34.78
2022-08-26T19:07:08.802Z,34.84
2022-08-26T19:09:40.474Z,34.87
2022-08-26T19:12:10.184Z,35.39
2022-08-26T19:14:44.837Z,35.31
2022-08-26T19:17:12.741Z,35.50
2022-08-26T19:19:44.499Z,35.81
2022-08-26T19:22:16.949Z,36.07
2022-08-26T19:24:44.726Z,36.12
2022-08-26T19:27:14.925Z,36.51
2022-08-26T19:29:46.799Z,36.55
2022-08-26T19:32:14.568Z,36.68
2022-08-26T19:34:45.818Z,36.77
2022-08-26T19:37:13.544Z,37.24
2022-08-26T19:39:41.312Z,37.43
2022-08-26T19:42:09.291Z,37.36
2022-08-26T19:44:55.667Z,37.72
2022-08-26T19:47:26.110Z,37.69
2022-08-26T19:49:58.258Z,37.92
2022-08-26T19:52:29.842Z,37.99
2022-08-26T19:55:03.037Z,38.07
2022-08-26T19:57:30.868Z,38.37
2022-08-26T20:00:02.705Z,38.23
2022-08-26T20:02:32.002Z,38.50
2022-08-26T20:04:59.933Z,38.63
2022-08-26T20:07:31.573Z,38.66
2022-08-26T20:10:01.671Z,38.93
2022-08-26T20:12:33.787Z,39.29
2022-08-26T20:15:05.384Z,39.48
2022-08-26T20:17:35.794Z,39.54
2022-08-26T20:20:33.295Z,39.56
2022-08-26T20:23:08.891Z,39.95
2022-08-26T20:25:36.753Z,40.01
2022-08-26T20:28:06.188Z,40.13
2022-08-26T20:30:34.542Z,40.30
2022-08-26T20:33:04.789Z,40.33
2022-08-26T20:35:35.032Z,40.48
2022-08-26T20:38:05.858Z,40.50
2022-08-26T20:40:38.149Z,40.79
2022-08-26T20:43:08.878Z,40.81
2022-08-26T20:45:39.179Z,40.89
2022-08-26T20:48:09.637Z,41.09
2022-08-26T20:50:41.080Z,41.16
2022-08-26T20:53:12.680Z,41.40
2022-08-26T20:55:45.000Z,41.57
2022-08-26T20:58:14.972Z,41.67
2022-08-26T21:00:47.531Z,42.11
2022-08-26T21:03:17.670Z,42.20
2022-08-26T21:05:47.911Z,42.15
2022-08-26T21:08:17.608Z,42.30
2022-08-26T21:10:51.127Z,42.32
2022-08-26T21:13:22.361Z,42.57
2022-08-26T21:15:52.652Z,42.51
2022-08-26T21:18:22.928Z,42.66
2022-08-26T21:20:54.380Z,42.67
2022-08-26T21:23:28.675Z,42.87
2022-08-26T21:26:05.445Z,42.99
2022-08-26T21:28:39.688Z,43.02
2022-08-26T21:31:14.016Z,43.03
2022-08-26T21:33:45.912Z,43.20
2022-08-26T21:36:18.816Z,43.47
2022-08-26T21:38:50.713Z,43.66
2022-08-26T21:41:23.600Z,43.56
2022-08-26T21:43:59.041Z,43.85
2022-08-26T21:46:32.028Z,43.99
2022-08-26T21:49:07.533Z,44.09
2022-08-26T21:51:42.032Z,44.22
2022-08-26T21:54:14.507Z,44.27
2022-08-26T21:56:48.219Z,44.48
2022-08-26T21:59:18.805Z,44.48
2022-08-26T22:01:51.310Z,44.56
2022-08-26T22:04:23.339Z,44.61
2022-08-26T22:06:57.730Z,44.75
2022-08-26T22:09:33.804Z,44.89
2022-08-26T22:12:03.890Z,45.04
2022-08-26T22:14:33.595Z,45.03
2022-08-26T22:17:06.222Z,45.18
2022-08-26T22:19:45.764Z,45.24
2022-08-26T22:22:20.599Z,45.55
2022-08-26T22:24:51.308Z,45.51
2022-08-26T22:27:21.555Z,45.53
2022-08-26T22:29:53.815Z,45.92
2022-08-26T22:32:24.116Z,45.78
2022-08-26T22:34:54.832Z,45.96
2022-08-26T22:37:25.065Z,46.06
2022-08-26T22:39:55.827Z,45.99
2022-08-26T22:42:23.863Z,46.29
2022-08-26T22:44:54.157Z,46.42
2022-08-26T22:47:27.206Z,46.54
2022-08-26T22:49:57.474Z,46.59
2022-08-26T22:52:29.084Z,46.59
2022-08-26T22:55:00.855Z,46.65
2022-08-26T22:57:29.784Z,46.69
2022-08-26T23:00:02.623Z,47.02
2022-08-26T23:02:30.592Z,47.13
2022-08-26T23:05:00.686Z,46.93
2022-08-26T23:07:28.853Z,46.92
2022-08-26T23:10:02.173Z,47.05
2022-08-26T23:12:29.989Z,47.21
2022-08-26T23:14:59.986Z,47.46
2022-08-26T23:17:31.707Z,47.60
2022-08-26T23:20:04.942Z,47.66
2022-08-26T23:22:34.660Z,47.58
2022-08-26T23:25:08.972Z,47.97
2022-08-26T23:27:43.350Z,47.81
2022-08-26T23:30:23.171Z,47.82
2022-08-26T23:32:54.315Z,48.04
2022-08-26T23:35:25.283Z,48.18
2022-08-26T23:37:58.925Z,48.27
2022-08-26T23:40:34.056Z,48.42
2022-08-26T23:43:08.178Z,48.67
2022-08-26T23:45:38.544Z,48.43
2022-08-26T23:48:11.118Z,48.70
2022-08-26T23:51:00.092Z,48.82
2022-08-26T23:53:28.927Z,48.86
2022-08-26T23:56:00.162Z,48.96
2022-08-26T23:58:30.432Z,49.07
